sensor_id;sensor_type;location;lat;lon;timestamp;pressure;altitude;pressure_sealevel;temperature;humidity
25855;BME280;13680;49.936;11.344;2023-06-22T00:02:15;96971.19;;;19.69;75.41
25855;BME280;13680;49.936;11.344;2023-06-22T00:04:41;96964.91;;;19.68;74.53
25855;BME280;13680;49.936;11.344;2023-06-22T00:07:06;96974.09;;;19.60;75.03
25855;BME280;13680;49.936;11.344;2023-06-22T00:09:33;96971.38;;;19.60;75.00
25855;BME280;13680;49.936;11.344;2023-06-22T00:11:58;96965.56;;;19.61;74.60
25855;BME280;13680;49.936;11.344;2023-06-22T00:14:23;96961.94;;;19.57;74.28
25855;BME280;13680;49.936;11.344;2023-06-22T00:16:49;96952.19;;;19.56;74.16
25855;BME280;13680;49.936;11.344;2023-06-22T00:19:15;96954.53;;;19.58;74.07
25855;BME280;13680;49.936;11.344;2023-06-22T00:21:41;96958.16;;;19.46;75.02
25855;BME280;13680;49.936;11.344;2023-06-22T00:24:07;96960.44;;;19.44;75.04
25855;BME280;13680;49.936;11.344;2023-06-22T00:26:32;96960.34;;;19.40;75.37
25855;BME280;13680;49.936;11.344;2023-06-22T00:28:58;96950.88;;;19.34;75.92
25855;BME280;13680;49.936;11.344;2023-06-22T00:31:23;96948.66;;;19.40;75.00
25855;BME280;13680;49.936;11.344;2023-06-22T00:33:48;96952.53;;;19.39;75.42
25855;BME280;13680;49.936;11.344;2023-06-22T00:36:15;96968.66;;;19.28;76.60
25855;BME280;13680;49.936;11.344;2023-06-22T00:38:43;96961.00;;;19.18;76.67
25855;BME280;13680;49.936;11.344;2023-06-22T00:41:08;96970.56;;;19.11;76.14
25855;BME280;13680;49.936;11.344;2023-06-22T00:43:34;96969.84;;;19.14;76.06
25855;BME280;13680;49.936;11.344;2023-06-22T00:45:59;96976.19;;;19.19;75.26
25855;BME280;13680;49.936;11.344;2023-06-22T00:48:25;96979.16;;;19.13;75.75
25855;BME280;13680;49.936;11.344;2023-06-22T00:50:50;96972.16;;;19.12;75.35
25855;BME280;13680;49.936;11.344;2023-06-22T00:53:19;96973.28;;;19.11;74.96
25855;BME280;13680;49.936;11.344;2023-06-22T00:55:45;96971.69;;;19.10;75.24
25855;BME280;13680;49.936;11.344;2023-06-22T00:58:13;96970.47;;;19.08;75.21
25855;BME280;13680;49.936;11.344;2023-06-22T01:00:42;96977.22;;;18.98;75.92
25855;BME280;13680;49.936;11.344;2023-06-22T01:03:07;96968.50;;;18.92;76.97
25855;BME280;13680;49.936;11.344;2023-06-22T01:05:37;96975.47;;;18.90;77.40
25855;BME280;13680;49.936;11.344;2023-06-22T01:11:07;96971.59;;;18.91;76.24
25855;BME280;13680;49.936;11.344;2023-06-22T01:14:04;96959.88;;;18.90;76.01
25855;BME280;13680;49.936;11.344;2023-06-22T01:16:34;96964.66;;;18.93;75.93
25855;BME280;13680;49.936;11.344;2023-06-22T01:19:08;96966.16;;;18.91;76.23
25855;BME280;13680;49.936;11.344;2023-06-22T01:21:35;96959.09;;;18.90;76.02
25855;BME280;13680;49.936;11.344;2023-06-22T01:26:56;96939.69;;;18.91;76.21
25855;BME280;13680;49.936;11.344;2023-06-22T01:29:22;96933.94;;;18.80;75.72
25855;BME280;13680;49.936;11.344;2023-06-22T01:31:50;96932.97;;;18.89;76.08
25855;BME280;13680;49.936;11.344;2023-06-22T01:34:17;96935.00;;;18.92;75.85
25855;BME280;13680;49.936;11.344;2023-06-22T01:36:43;96921.75;;;18.90;75.79
25855;BME280;13680;49.936;11.344;2023-06-22T01:39:09;96907.38;;;18.77;76.56
25855;BME280;13680;49.936;11.344;2023-06-22T01:41:36;96910.53;;;18.79;76.12
25855;BME280;13680;49.936;11.344;2023-06-22T01:44:06;96902.91;;;18.85;75.72
25855;BME280;13680;49.936;11.344;2023-06-22T01:46:34;96895.06;;;18.84;75.71
25855;BME280;13680;49.936;11.344;2023-06-22T01:49:02;96886.28;;;18.74;75.91
25855;BME280;13680;49.936;11.344;2023-06-22T01:51:27;96876.88;;;18.72;75.84
25855;BME280;13680;49.936;11.344;2023-06-22T01:53:53;96876.88;;;18.72;75.75
25855;BME280;13680;49.936;11.344;2023-06-22T01:56:18;96868.16;;;18.66;76.51
25855;BME280;13680;49.936;11.344;2023-06-22T01:58:50;96877.41;;;18.61;77.18
25855;BME280;13680;49.936;11.344;2023-06-22T02:01:35;96880.97;;;18.49;80.20
25855;BME280;13680;49.936;11.344;2023-06-22T02:04:16;96878.94;;;18.46;81.85
25855;BME280;13680;49.936;11.344;2023-06-22T02:06:46;96880.97;;;18.49;80.55
25855;BME280;13680;49.936;11.344;2023-06-22T02:09:16;96888.25;;;18.45;79.60
25855;BME280;13680;49.936;11.344;2023-06-22T02:11:44;96892.75;;;18.54;79.34
25855;BME280;13680;49.936;11.344;2023-06-22T02:14:11;96891.28;;;18.56;79.46
25855;BME280;13680;49.936;11.344;2023-06-22T02:16:38;96892.06;;;18.57;79.88
25855;BME280;13680;49.936;11.344;2023-06-22T02:19:04;96898.47;;;18.64;78.79
25855;BME280;13680;49.936;11.344;2023-06-22T02:21:30;96903.22;;;18.68;78.83
25855;BME280;13680;49.936;11.344;2023-06-22T02:23:56;96905.88;;;18.64;78.51
25855;BME280;13680;49.936;11.344;2023-06-22T02:26:22;96904.03;;;18.68;78.24
25855;BME280;13680;49.936;11.344;2023-06-22T02:28:48;96916.50;;;18.69;78.09
25855;BME280;13680;49.936;11.344;2023-06-22T02:31:13;96909.91;;;18.70;78.14
25855;BME280;13680;49.936;11.344;2023-06-22T02:33:39;96912.63;;;18.70;78.23
25855;BME280;13680;49.936;11.344;2023-06-22T02:36:04;96917.63;;;18.68;78.52
25855;BME280;13680;49.936;11.344;2023-06-22T02:38:30;96907.97;;;18.71;77.76
25855;BME280;13680;49.936;11.344;2023-06-22T02:40:58;96895.28;;;18.62;77.49
25855;BME280;13680;49.936;11.344;2023-06-22T02:43:25;96902.44;;;18.67;77.13
25855;BME280;13680;49.936;11.344;2023-06-22T02:45:51;96906.66;;;18.64;77.03
25855;BME280;13680;49.936;11.344;2023-06-22T02:48:16;96906.19;;;18.62;76.90
25855;BME280;13680;49.936;11.344;2023-06-22T02:50:41;96917.00;;;18.59;77.25
25855;BME280;13680;49.936;11.344;2023-06-22T02:53:06;96917.25;;;18.54;77.02
25855;BME280;13680;49.936;11.344;2023-06-22T02:55:32;96932.44;;;18.55;77.39
25855;BME280;13680;49.936;11.344;2023-06-22T02:57:57;96935.88;;;18.52;78.06
25855;BME280;13680;49.936;11.344;2023-06-22T03:00:24;96971.97;;;18.48;77.62
25855;BME280;13680;49.936;11.344;2023-06-22T03:02:56;97010.88;;;18.49;78.37
25855;BME280;13680;49.936;11.344;2023-06-22T03:05:22;97073.75;;;18.44;81.70
25855;BME280;13680;49.936;11.344;2023-06-22T03:07:48;97136.81;;;18.58;87.74
25855;BME280;13680;49.936;11.344;2023-06-22T03:10:14;97164.06;;;18.34;94.52
25855;BME280;13680;49.936;11.344;2023-06-22T03:12:41;97166.88;;;18.74;92.58
25855;BME280;13680;49.936;11.344;2023-06-22T03:15:08;97151.97;;;18.96;90.15
25855;BME280;13680;49.936;11.344;2023-06-22T03:17:35;97149.59;;;19.07;89.53
25855;BME280;13680;49.936;11.344;2023-06-22T03:20:02;97140.78;;;19.26;88.46
25855;BME280;13680;49.936;11.344;2023-06-22T03:22:33;97090.84;;;19.38;88.77
25855;BME280;13680;49.936;11.344;2023-06-22T03:24:59;97012.00;;;19.33;89.92
25855;BME280;13680;49.936;11.344;2023-06-22T03:27:24;97027.22;;;19.34;91.06
25855;BME280;13680;49.936;11.344;2023-06-22T03:29:50;97060.63;;;19.31;89.39
25855;BME280;13680;49.936;11.344;2023-06-22T03:32:15;97062.59;;;19.46;88.91
25855;BME280;13680;49.936;11.344;2023-06-22T03:34:40;97052.50;;;19.47;89.45
25855;BME280;13680;49.936;11.344;2023-06-22T03:37:06;97039.47;;;19.56;90.11
25855;BME280;13680;49.936;11.344;2023-06-22T03:39:31;97051.00;;;19.66;89.05
25855;BME280;13680;49.936;11.344;2023-06-22T03:41:57;97050.41;;;19.72;87.81
25855;BME280;13680;49.936;11.344;2023-06-22T03:44:22;97053.44;;;19.71;87.72
25855;BME280;13680;49.936;11.344;2023-06-22T03:46:47;97047.91;;;19.67;88.23
25855;BME280;13680;49.936;11.344;2023-06-22T03:49:12;97054.25;;;19.71;87.89
25855;BME280;13680;49.936;11.344;2023-06-22T03:51:38;97055.41;;;19.70;87.73
25855;BME280;13680;49.936;11.344;2023-06-22T03:54:04;97047.22;;;19.70;87.86
25855;BME280;13680;49.936;11.344;2023-06-22T03:56:29;97041.31;;;19.68;88.64
25855;BME280;13680;49.936;11.344;2023-06-22T03:58:54;97027.34;;;19.70;88.65
25855;BME280;13680;49.936;11.344;2023-06-22T04:01:20;97022.38;;;19.59;88.66
25855;BME280;13680;49.936;11.344;2023-06-22T04:03:45;97003.84;;;19.65;90.01
25855;BME280;13680;49.936;11.344;2023-06-22T04:06:13;96991.66;;;19.78;89.43
25855;BME280;13680;49.936;11.344;2023-06-22T04:08:38;96981.72;;;19.86;88.66
25855;BME280;13680;49.936;11.344;2023-06-22T04:11:03;96973.91;;;19.85;89.11
25855;BME280;13680;49.936;11.344;2023-06-22T04:13:30;96968.81;;;19.83;89.21
25855;BME280;13680;49.936;11.344;2023-06-22T04:15:55;96958.16;;;19.94;88.54
25855;BME280;13680;49.936;11.344;2023-06-22T04:18:20;96953.03;;;19.92;89.13
25855;BME280;13680;49.936;11.344;2023-06-22T04:20:46;96949.69;;;19.83;90.41
25855;BME280;13680;49.936;11.344;2023-06-22T04:23:12;96937.88;;;19.95;90.08
25855;BME280;13680;49.936;11.344;2023-06-22T04:25:37;96926.75;;;20.04;90.99
25855;BME280;13680;49.936;11.344;2023-06-22T04:28:03;96917.50;;;20.28;91.30
25855;BME280;13680;49.936;11.344;2023-06-22T04:30:29;96921.25;;;20.39;90.59
25855;BME280;13680;49.936;11.344;2023-06-22T04:32:56;96921.97;;;20.36;91.80
25855;BME280;13680;49.936;11.344;2023-06-22T04:35:23;96907.38;;;20.48;90.79
25855;BME280;13680;49.936;11.344;2023-06-22T04:37:48;96898.56;;;20.78;89.31
25855;BME280;13680;49.936;11.344;2023-06-22T04:40:14;96891.34;;;20.89;89.05
25855;BME280;13680;49.936;11.344;2023-06-22T04:42:40;96869.25;;;20.98;88.58
25855;BME280;13680;49.936;11.344;2023-06-22T04:45:05;96860.72;;;21.03;88.57
25855;BME280;13680;49.936;11.344;2023-06-22T04:47:31;96854.63;;;21.14;87.72
25855;BME280;13680;49.936;11.344;2023-06-22T04:49:56;96861.44;;;21.23;87.43
25855;BME280;13680;49.936;11.344;2023-06-22T04:52:22;96864.88;;;21.17;87.13
25855;BME280;13680;49.936;11.344;2023-06-22T04:54:47;96868.88;;;21.23;86.93
25855;BME280;13680;49.936;11.344;2023-06-22T04:57:13;96867.41;;;21.06;87.16
25855;BME280;13680;49.936;11.344;2023-06-22T04:59:39;96857.81;;;21.16;85.70
25855;BME280;13680;49.936;11.344;2023-06-22T05:02:07;96856.28;;;21.18;86.23
25855;BME280;13680;49.936;11.344;2023-06-22T05:04:32;96858.97;;;21.41;85.28
25855;BME280;13680;49.936;11.344;2023-06-22T05:07:02;96858.59;;;21.43;84.00
25855;BME280;13680;49.936;11.344;2023-06-22T05:09:28;96864.03;;;21.39;84.12
25855;BME280;13680;49.936;11.344;2023-06-22T05:11:54;96863.44;;;21.26;84.98
25855;BME280;13680;49.936;11.344;2023-06-22T05:14:19;96851.41;;;21.31;84.96
25855;BME280;13680;49.936;11.344;2023-06-22T05:16:45;96849.63;;;21.42;83.76
25855;BME280;13680;49.936;11.344;2023-06-22T05:19:11;96841.91;;;21.52;83.63
25855;BME280;13680;49.936;11.344;2023-06-22T05:21:37;96839.88;;;21.72;81.70
25855;BME280;13680;49.936;11.344;2023-06-22T05:24:03;96837.53;;;21.70;81.41
25855;BME280;13680;49.936;11.344;2023-06-22T05:26:31;96841.03;;;22.01;79.98
25855;BME280;13680;49.936;11.344;2023-06-22T05:28:56;96830.31;;;21.89;80.32
25855;BME280;13680;49.936;11.344;2023-06-22T05:31:22;96838.06;;;22.14;78.52
25855;BME280;13680;49.936;11.344;2023-06-22T05:33:49;96842.72;;;22.10;78.17
25855;BME280;13680;49.936;11.344;2023-06-22T05:36:15;96840.31;;;22.38;76.12
25855;BME280;13680;49.936;11.344;2023-06-22T05:38:41;96836.22;;;22.25;75.53
25855;BME280;13680;49.936;11.344;2023-06-22T05:41:07;96840.25;;;22.72;73.73
25855;BME280;13680;49.936;11.344;2023-06-22T05:43:33;96842.69;;;22.81;71.91
25855;BME280;13680;49.936;11.344;2023-06-22T05:45:59;96838.38;;;22.80;71.40
25855;BME280;13680;49.936;11.344;2023-06-22T05:48:25;96850.16;;;22.84;71.01
25855;BME280;13680;49.936;11.344;2023-06-22T05:50:50;96848.72;;;23.01;70.57
25855;BME280;13680;49.936;11.344;2023-06-22T05:53:15;96853.66;;;23.26;69.29
25855;BME280;13680;49.936;11.344;2023-06-22T05:55:41;96846.41;;;23.56;68.02
25855;BME280;13680;49.936;11.344;2023-06-22T05:58:07;96852.78;;;23.78;67.34
25855;BME280;13680;49.936;11.344;2023-06-22T06:00:33;96851.72;;;23.97;66.51
25855;BME280;13680;49.936;11.344;2023-06-22T06:02:58;96853.19;;;23.80;66.82
25855;BME280;13680;49.936;11.344;2023-06-22T06:05:28;96850.84;;;23.85;65.19
25855;BME280;13680;49.936;11.344;2023-06-22T06:07:54;96849.84;;;24.23;64.48
25855;BME280;13680;49.936;11.344;2023-06-22T06:10:19;96852.69;;;24.48;63.75
25855;BME280;13680;49.936;11.344;2023-06-22T06:12:45;96846.88;;;24.75;62.84
25855;BME280;13680;49.936;11.344;2023-06-22T06:15:10;96852.03;;;24.98;63.15
25855;BME280;13680;49.936;11.344;2023-06-22T06:17:35;96848.47;;;25.05;62.36
25855;BME280;13680;49.936;11.344;2023-06-22T06:20:01;96848.06;;;25.17;62.17
25855;BME280;13680;49.936;11.344;2023-06-22T06:22:26;96844.94;;;25.04;61.67
25855;BME280;13680;49.936;11.344;2023-06-22T06:24:51;96850.03;;;25.13;61.30
25855;BME280;13680;49.936;11.344;2023-06-22T06:27:17;96840.59;;;25.50;60.96
25855;BME280;13680;49.936;11.344;2023-06-22T06:29:43;96841.78;;;25.20;59.52
25855;BME280;13680;49.936;11.344;2023-06-22T06:32:11;96841.75;;;25.31;58.83
25855;BME280;13680;49.936;11.344;2023-06-22T06:34:36;96842.97;;;25.15;59.82
25855;BME280;13680;49.936;11.344;2023-06-22T06:37:01;96842.19;;;25.22;60.05
25855;BME280;13680;49.936;11.344;2023-06-22T06:39:27;96843.69;;;25.74;57.82
25855;BME280;13680;49.936;11.344;2023-06-22T06:41:52;96840.56;;;25.64;57.33
25855;BME280;13680;49.936;11.344;2023-06-22T06:44:17;96843.63;;;25.95;56.60
25855;BME280;13680;49.936;11.344;2023-06-22T06:46:43;96848.31;;;26.09;56.50
25855;BME280;13680;49.936;11.344;2023-06-22T06:49:08;96833.91;;;25.55;57.10
25855;BME280;13680;49.936;11.344;2023-06-22T06:51:33;96832.19;;;25.97;56.03
25855;BME280;13680;49.936;11.344;2023-06-22T06:53:58;96834.91;;;26.11;54.73
25855;BME280;13680;49.936;11.344;2023-06-22T06:56:24;96833.28;;;26.28;56.18
25855;BME280;13680;49.936;11.344;2023-06-22T06:58:52;96836.03;;;26.28;54.59
25855;BME280;13680;49.936;11.344;2023-06-22T07:01:18;96833.91;;;26.54;54.73
25855;BME280;13680;49.936;11.344;2023-06-22T07:03:44;96828.16;;;26.90;53.93
25855;BME280;13680;49.936;11.344;2023-06-22T07:06:10;96806.53;;;26.85;53.54
25855;BME280;13680;49.936;11.344;2023-06-22T07:08:35;96812.97;;;27.17;53.48
25855;BME280;13680;49.936;11.344;2023-06-22T07:11:02;96816.88;;;27.19;52.28
25855;BME280;13680;49.936;11.344;2023-06-22T07:13:27;96811.56;;;26.98;53.31
25855;BME280;13680;49.936;11.344;2023-06-22T07:15:52;96818.03;;;27.25;52.05
25855;BME280;13680;49.936;11.344;2023-06-22T07:18:18;96809.56;;;26.98;52.24
25855;BME280;13680;49.936;11.344;2023-06-22T07:20:43;96807.94;;;27.50;51.83
25855;BME280;13680;49.936;11.344;2023-06-22T07:23:09;96805.88;;;27.16;51.58
25855;BME280;13680;49.936;11.344;2023-06-22T07:25:34;96807.84;;;27.19;52.03
25855;BME280;13680;49.936;11.344;2023-06-22T07:28:01;96802.38;;;27.53;51.00
25855;BME280;13680;49.936;11.344;2023-06-22T07:30:28;96794.63;;;28.10;50.09
25855;BME280;13680;49.936;11.344;2023-06-22T07:32:53;96797.44;;;27.72;49.90
25855;BME280;13680;49.936;11.344;2023-06-22T07:35:19;96800.13;;;27.79;50.74
25855;BME280;13680;49.936;11.344;2023-06-22T07:37:44;96801.00;;;28.07;49.03
25855;BME280;13680;49.936;11.344;2023-06-22T07:40:10;96794.44;;;28.52;48.47
25855;BME280;13680;49.936;11.344;2023-06-22T07:42:35;96790.72;;;28.62;48.07
25855;BME280;13680;49.936;11.344;2023-06-22T07:45:03;96791.16;;;28.88;47.71
25855;BME280;13680;49.936;11.344;2023-06-22T07:47:28;96782.66;;;28.99;47.18
25855;BME280;13680;49.936;11.344;2023-06-22T07:49:55;96788.25;;;28.95;47.37
25855;BME280;13680;49.936;11.344;2023-06-22T07:52:23;96789.50;;;29.38;45.99
25855;BME280;13680;49.936;11.344;2023-06-22T07:54:48;96789.28;;;29.29;46.13
25855;BME280;13680;49.936;11.344;2023-06-22T07:57:13;96785.41;;;29.22;46.01
25855;BME280;13680;49.936;11.344;2023-06-22T07:59:39;96782.03;;;29.59;45.29
25855;BME280;13680;49.936;11.344;2023-06-22T08:02:05;96776.53;;;29.75;44.67
25855;BME280;13680;49.936;11.344;2023-06-22T08:04:30;96772.22;;;29.74;44.80
25855;BME280;13680;49.936;11.344;2023-06-22T08:06:59;96773.06;;;29.71;44.92
25855;BME280;13680;49.936;11.344;2023-06-22T08:09:24;96782.97;;;29.92;44.67
25855;BME280;13680;49.936;11.344;2023-06-22T08:11:49;96782.88;;;30.32;44.23
25855;BME280;13680;49.936;11.344;2023-06-22T08:14:15;96791.41;;;30.05;43.52
25855;BME280;13680;49.936;11.344;2023-06-22T08:16:41;96791.09;;;30.19;43.16
25855;BME280;13680;49.936;11.344;2023-06-22T08:19:07;96790.84;;;30.50;42.07
25855;BME280;13680;49.936;11.344;2023-06-22T08:21:32;96790.00;;;30.33;42.20
25855;BME280;13680;49.936;11.344;2023-06-22T08:23:57;96780.06;;;30.52;42.47
25855;BME280;13680;49.936;11.344;2023-06-22T08:26:23;96786.31;;;30.90;41.35
25855;BME280;13680;49.936;11.344;2023-06-22T08:28:48;96795.97;;;31.01;40.36
25855;BME280;13680;49.936;11.344;2023-06-22T08:31:14;96788.91;;;31.30;41.59
25855;BME280;13680;49.936;11.344;2023-06-22T08:33:39;96783.91;;;31.25;41.16
25855;BME280;13680;49.936;11.344;2023-06-22T08:36:05;96793.72;;;31.13;41.28
25855;BME280;13680;49.936;11.344;2023-06-22T08:38:31;96784.06;;;30.84;41.89
25855;BME280;13680;49.936;11.344;2023-06-22T08:40:57;96779.56;;;31.07;40.67
25855;BME280;13680;49.936;11.344;2023-06-22T08:43:22;96772.47;;;31.06;41.07
25855;BME280;13680;49.936;11.344;2023-06-22T08:45:48;96764.63;;;31.17;41.05
25855;BME280;13680;49.936;11.344;2023-06-22T08:48:13;96770.34;;;31.56;40.53
25855;BME280;13680;49.936;11.344;2023-06-22T08:50:39;96772.88;;;31.50;40.03
25855;BME280;13680;49.936;11.344;2023-06-22T08:53:05;96767.72;;;31.36;40.60
25855;BME280;13680;49.936;11.344;2023-06-22T08:55:31;96769.97;;;31.41;41.06
25855;BME280;13680;49.936;11.344;2023-06-22T08:57:56;96764.66;;;31.76;39.23
25855;BME280;13680;49.936;11.344;2023-06-22T09:00:22;96758.25;;;32.05;39.96
25855;BME280;13680;49.936;11.344;2023-06-22T09:02:47;96759.84;;;32.19;39.59
25855;BME280;13680;49.936;11.344;2023-06-22T09:05:13;96757.53;;;31.88;40.24
25855;BME280;13680;49.936;11.344;2023-06-22T09:07:38;96747.59;;;32.55;39.31
25855;BME280;13680;49.936;11.344;2023-06-22T09:10:05;96749.06;;;33.08;38.25
25855;BME280;13680;49.936;11.344;2023-06-22T09:12:31;96744.91;;;32.64;39.16
25855;BME280;13680;49.936;11.344;2023-06-22T09:14:58;96752.13;;;31.85;40.00
25855;BME280;13680;49.936;11.344;2023-06-22T09:17:25;96745.91;;;32.06;40.08
25855;BME280;13680;49.936;11.344;2023-06-22T09:19:51;96744.72;;;32.46;39.64
25855;BME280;13680;49.936;11.344;2023-06-22T09:22:16;96740.00;;;32.56;39.21
25855;BME280;13680;49.936;11.344;2023-06-22T09:24:42;96737.16;;;33.07;38.74
25855;BME280;13680;49.936;11.344;2023-06-22T09:27:07;96739.69;;;33.50;36.62
25855;BME280;13680;49.936;11.344;2023-06-22T09:29:32;96732.00;;;33.19;36.48
25855;BME280;13680;49.936;11.344;2023-06-22T09:32:01;96735.25;;;32.56;38.15
25855;BME280;13680;49.936;11.344;2023-06-22T09:34:26;96745.13;;;32.83;38.02
25855;BME280;13680;49.936;11.344;2023-06-22T09:36:52;96726.56;;;33.37;36.80
25855;BME280;13680;49.936;11.344;2023-06-22T09:39:20;96721.25;;;33.74;35.84
25855;BME280;13680;49.936;11.344;2023-06-22T09:41:46;96724.56;;;34.14;35.18
25855;BME280;13680;49.936;11.344;2023-06-22T09:44:11;96723.06;;;34.22;35.77
25855;BME280;13680;49.936;11.344;2023-06-22T09:46:36;96719.59;;;34.40;33.85
25855;BME280;13680;49.936;11.344;2023-06-22T09:49:01;96717.91;;;34.42;34.67
25855;BME280;13680;49.936;11.344;2023-06-22T09:51:27;96715.53;;;34.00;34.87
25855;BME280;13680;49.936;11.344;2023-06-22T09:53:52;96718.63;;;34.02;34.78
25855;BME280;13680;49.936;11.344;2023-06-22T09:56:20;96720.22;;;34.44;33.78
25855;BME280;13680;49.936;11.344;2023-06-22T09:58:46;96727.25;;;34.26;35.76
25855;BME280;13680;49.936;11.344;2023-06-22T10:01:12;96713.22;;;34.89;33.45
25855;BME280;13680;49.936;11.344;2023-06-22T10:03:40;96701.84;;;34.74;33.84
25855;BME280;13680;49.936;11.344;2023-06-22T10:06:06;96705.91;;;34.92;33.96
25855;BME280;13680;49.936;11.344;2023-06-22T10:08:32;96697.06;;;35.40;32.03
25855;BME280;13680;49.936;11.344;2023-06-22T10:10:57;96709.31;;;35.61;31.75
25855;BME280;13680;49.936;11.344;2023-06-22T10:13:22;96702.19;;;34.95;32.44
25855;BME280;13680;49.936;11.344;2023-06-22T10:15:48;96709.78;;;35.13;32.64
25855;BME280;13680;49.936;11.344;2023-06-22T10:18:17;96703.91;;;35.39;31.37
25855;BME280;13680;49.936;11.344;2023-06-22T10:20:42;96716.53;;;34.16;32.83
25855;BME280;13680;49.936;11.344;2023-06-22T10:23:08;96711.44;;;34.64;32.39
25855;BME280;13680;49.936;11.344;2023-06-22T10:25:33;96702.66;;;35.03;32.40
25855;BME280;13680;49.936;11.344;2023-06-22T10:27:59;96711.13;;;34.71;33.20
25855;BME280;13680;49.936;11.344;2023-06-22T10:30:24;96709.50;;;34.33;33.77
25855;BME280;13680;49.936;11.344;2023-06-22T10:32:50;96717.59;;;34.50;33.23
25855;BME280;13680;49.936;11.344;2023-06-22T10:35:15;96713.06;;;35.12;32.93
25855;BME280;13680;49.936;11.344;2023-06-22T10:37:44;96710.25;;;35.12;32.73
25855;BME280;13680;49.936;11.344;2023-06-22T10:40:14;96712.75;;;35.28;31.51
25855;BME280;13680;49.936;11.344;2023-06-22T10:42:41;96714.00;;;35.36;31.34
25855;BME280;13680;49.936;11.344;2023-06-22T10:45:07;96696.78;;;35.38;30.89
25855;BME280;13680;49.936;11.344;2023-06-22T10:47:33;96691.91;;;35.66;31.24
25855;BME280;13680;49.936;11.344;2023-06-22T10:49:58;96689.56;;;35.74;31.04
25855;BME280;13680;49.936;11.344;2023-06-22T10:52:24;96678.41;;;35.65;30.62
25855;BME280;13680;49.936;11.344;2023-06-22T10:54:49;96677.44;;;35.86;30.84
25855;BME280;13680;49.936;11.344;2023-06-22T10:57:15;96674.00;;;35.73;30.47
25855;BME280;13680;49.936;11.344;2023-06-22T10:59:40;96675.78;;;36.04;30.03
25855;BME280;13680;49.936;11.344;2023-06-22T11:02:05;96674.06;;;35.54;30.09
25855;BME280;13680;49.936;11.344;2023-06-22T11:04:31;96686.03;;;35.18;31.08
25855;BME280;13680;49.936;11.344;2023-06-22T11:06:56;96693.34;;;35.24;31.15
25855;BME280;13680;49.936;11.344;2023-06-22T11:09:22;96692.94;;;35.97;29.83
25855;BME280;13680;49.936;11.344;2023-06-22T11:11:49;96695.63;;;36.58;29.14
25855;BME280;13680;49.936;11.344;2023-06-22T11:14:14;96697.63;;;35.91;29.13
25855;BME280;13680;49.936;11.344;2023-06-22T11:16:40;96685.81;;;35.86;29.65
25855;BME280;13680;49.936;11.344;2023-06-22T11:19:05;96682.66;;;35.94;28.50
25855;BME280;13680;49.936;11.344;2023-06-22T11:21:31;96664.16;;;36.30;28.79
25855;BME280;13680;49.936;11.344;2023-06-22T11:23:57;96662.66;;;36.53;27.95
25855;BME280;13680;49.936;11.344;2023-06-22T11:26:22;96649.16;;;36.66;27.59
25855;BME280;13680;49.936;11.344;2023-06-22T11:28:48;96656.16;;;36.47;27.70
25855;BME280;13680;49.936;11.344;2023-06-22T11:31:13;96661.16;;;36.67;27.71
25855;BME280;13680;49.936;11.344;2023-06-22T11:33:39;96654.09;;;36.96;27.88
25855;BME280;13680;49.936;11.344;2023-06-22T11:36:04;96657.44;;;37.09;27.62
25855;BME280;13680;49.936;11.344;2023-06-22T11:38:30;96655.69;;;37.12;27.39
25855;BME280;13680;49.936;11.344;2023-06-22T11:40:57;96652.97;;;37.03;26.77
25855;BME280;13680;49.936;11.344;2023-06-22T11:43:23;96636.84;;;37.72;26.45
25855;BME280;13680;49.936;11.344;2023-06-22T11:45:48;96631.81;;;37.91;26.14
25855;BME280;13680;49.936;11.344;2023-06-22T11:48:14;96624.81;;;38.02;25.17
25855;BME280;13680;49.936;11.344;2023-06-22T11:50:39;96627.31;;;37.49;26.59
25855;BME280;13680;49.936;11.344;2023-06-22T11:53:04;96633.16;;;37.21;27.92
25855;BME280;13680;49.936;11.344;2023-06-22T11:55:30;96629.56;;;36.42;28.08
25855;BME280;13680;49.936;11.344;2023-06-22T11:57:56;96630.69;;;36.60;27.37
25855;BME280;13680;49.936;11.344;2023-06-22T12:00:24;96615.47;;;37.90;25.88
25855;BME280;13680;49.936;11.344;2023-06-22T12:02:51;96604.25;;;38.67;25.38
25855;BME280;13680;49.936;11.344;2023-06-22T12:05:19;96598.09;;;38.42;25.02
25855;BME280;13680;49.936;11.344;2023-06-22T12:07:44;96593.09;;;38.72;25.66
25855;BME280;13680;49.936;11.344;2023-06-22T12:10:09;96593.00;;;38.67;25.90
25855;BME280;13680;49.936;11.344;2023-06-22T12:12:35;96594.31;;;39.39;23.97
25855;BME280;13680;49.936;11.344;2023-06-22T12:15:00;96576.59;;;38.80;24.72
25855;BME280;13680;49.936;11.344;2023-06-22T12:17:29;96581.88;;;38.99;25.18
25855;BME280;13680;49.936;11.344;2023-06-22T12:19:54;96584.06;;;38.89;25.44
25855;BME280;13680;49.936;11.344;2023-06-22T12:22:19;96578.78;;;39.49;24.92
25855;BME280;13680;49.936;11.344;2023-06-22T12:24:45;96580.66;;;39.05;25.20
25855;BME280;13680;49.936;11.344;2023-06-22T12:27:10;96580.25;;;39.71;24.23
25855;BME280;13680;49.936;11.344;2023-06-22T12:29:35;96580.97;;;40.52;23.28
25855;BME280;13680;49.936;11.344;2023-06-22T12:32:00;96576.44;;;40.66;22.69
25855;BME280;13680;49.936;11.344;2023-06-22T12:34:26;96568.34;;;41.14;22.16
25855;BME280;13680;49.936;11.344;2023-06-22T12:36:51;96558.34;;;39.22;24.72
25855;BME280;13680;49.936;11.344;2023-06-22T12:39:19;96556.31;;;39.92;24.31
25855;BME280;13680;49.936;11.344;2023-06-22T12:41:44;96559.03;;;40.19;24.55
25855;BME280;13680;49.936;11.344;2023-06-22T12:44:09;96554.56;;;39.95;24.13
25855;BME280;13680;49.936;11.344;2023-06-22T12:46:35;96542.06;;;40.56;23.60
25855;BME280;13680;49.936;11.344;2023-06-22T12:49:03;96549.41;;;40.37;23.52
25855;BME280;13680;49.936;11.344;2023-06-22T12:51:29;96538.66;;;40.47;23.35